• Join FlightAware (Why Join?)
  • Login
  • US Flag 
05:43AM EST


 

Airport Tracker/Info


-or-


 

Live Flight TrackerFlight Track Log ✈ EJA846 ✈ 24-Apr-2013 ✈ KTPA - KJAX

Flight Track Log - Related Links

Times and Time Zones

All times are in EDT time to prevent confusion due to time zone crossing. See the EJA846 flight status page for this flight to view local times or setup timezone preferences in your user account.

Time Position Orientation Groundspeed Altitude Reporting Facility
EDT Latitude Longitude Course Direction KTS MPH feet Rate Location/Type
04:56PM 27.9667 -82.5333 211° Southwest 182 209 700  Level Tampa TRACON
04:57PM 27.9167 -82.5667 211° Southwest 251 289 3,500 3,240 Climbing Tampa TRACON
04:58PM 27.9333 -82.6333 286° West 275 316 6,600 3,360 Climbing Tampa TRACON
05:00PM 28.1039 -82.6314 North 291 335 14,300 2,760 Climbing Jacksonville Center
05:01PM 28.1914 -82.6147 10° North 296 341 16,000 840 Climbing Jacksonville Center
05:02PM 28.2936 -82.5956 North 334 384 16,000  Level Jacksonville Center
05:03PM 28.3958 -82.5764 North 356 410 16,000  Level Jacksonville Center
05:04PM 28.4981 -82.5619 North 367 422 16,000  Level Jacksonville Center
05:05PM 28.6003 -82.5425 North 367 422 16,000  Level Jacksonville Center
05:06PM 28.6983 -82.5258 North 367 422 16,000  Level Jacksonville Center
05:07PM 28.8006 -82.5039 11° North 367 422 16,000  Level Jacksonville Center
05:08PM 28.9006 -82.4750 14° North 372 428 16,000  Level Jacksonville Center
05:09PM 29.0047 -82.4486 12° North 372 428 16,000  Level Jacksonville Center
05:10PM 29.1050 -82.4244 12° North 372 428 16,000 60 Level Jacksonville Center
05:11PM 29.1569 -82.4122 12° North 373 429 16,100  Climbing Jacksonville Center
05:11PM 29.2050 -82.3978 15° North 372 428 16,000  Descending Jacksonville Center
05:12PM 29.2531 -82.3881 10° North 373 429 16,100  Climbing Jacksonville Center
05:12PM 29.3072 -82.3733 13° North 372 428 16,000  Descending Jacksonville Center
05:13PM 29.3531 -82.3636 10° North 371 427 16,100  Climbing Jacksonville Center
05:13PM 29.4072 -82.3442 17° North 372 428 16,000 -240 Descending Jacksonville Center
05:14PM 29.4553 -82.3369 North 369 425 15,900 -600 Descending Jacksonville Center
05:14PM 29.5053 -82.3197 17° North 367 422 15,400 -1,140 Descending Jacksonville Center
05:15PM 29.5594 -82.3028 15° North 365 420 14,800 -1,020 Descending Jacksonville Center
05:15PM 29.6011 -82.2833 22° Northeast 362 417 14,400 -900 Descending Jacksonville Center
05:16PM 29.6408 -82.2689 18° North 359 413 14,000 -1,200 Descending Jacksonville Center
05:16PM 29.7053 -82.2397 21° North 357 411 13,200 -1,080 Descending Jacksonville Center
05:17PM 29.7469 -82.2275 14° North 350 403 12,800 -900 Descending Jacksonville Center
05:17PM 29.7969 -82.2081 19° North 357 411 12,300 -1,140 Descending Jacksonville Center
05:18PM 29.8367 -82.1886 23° Northeast 345 397 11,700 -1,440 Descending Jacksonville Center
05:18PM 29.8867 -82.1714 17° North 345 397 10,900 -1,620 Descending Jacksonville Center
05:19PM 29.9242 -82.1569 18° North 307 353 10,100 -1,500 Descending Jacksonville Center
05:19PM 29.9700 -82.1397 18° North 327 376 9,400 -1,560 Descending Jacksonville Center
05:20PM 30.0200 -82.1250 14° North 303 349 8,400 -1,620 Descending Jacksonville Center
05:20PM 30.0469 -82.1128 21° North 303 349 7,800 -1,560 Descending Jacksonville Center
05:21PM 30.0867 -82.0956 21° North 278 320 7,000 -1,560 Descending Jacksonville Center
05:22PM 30.1553 -82.0733 16° North 275 316 5,600 -1,020 Descending Jacksonville Center
05:23PM 30.2242 -82.0489 17° North 265 305 5,100 -360 Descending Jacksonville Center
05:24PM 30.2989 -81.9975 31° Northeast 269 310 4,900 -660 Descending Jacksonville Center
05:25PM 30.3611 -81.9369 40° Northeast 269 310 3,700 -1,080 Descending Jacksonville Center
05:26PM 30.4131 -81.8931 36° Northeast 267 307 2,800 -960 Descending Jacksonville Center
05:27PM 30.4689 -81.8417 38° Northeast 255 293 2,000 -840 Descending Jacksonville Center